sensor_id;sensor_type;location;lat;lon;timestamp;pressure;altitude;pressure_sealevel;temperature;humidity
20015;BME280;61787;42.022;23.078;2022-09-25T00:00:37;97202.31;;;12.04;65.60
20015;BME280;61787;42.022;23.078;2022-09-25T00:01:39;97200.19;;;12.09;65.37
20015;BME280;61787;42.022;23.078;2022-09-25T00:02:41;97203.88;;;12.17;64.96
20015;BME280;61787;42.022;23.078;2022-09-25T00:03:42;97207.16;;;12.22;64.72
20015;BME280;61787;42.022;23.078;2022-09-25T00:04:44;97203.81;;;12.25;64.86
20015;BME280;61787;42.022;23.078;2022-09-25T00:05:46;97206.94;;;12.27;63.94
20015;BME280;61787;42.022;23.078;2022-09-25T00:06:47;97208.84;;;12.27;64.06
20015;BME280;61787;42.022;23.078;2022-09-25T00:07:49;97202.34;;;12.28;64.53
20015;BME280;61787;42.022;23.078;2022-09-25T00:08:52;97193.47;;;12.27;64.52
20015;BME280;61787;42.022;23.078;2022-09-25T00:09:54;97188.09;;;12.27;64.12
20015;BME280;61787;42.022;23.078;2022-09-25T00:10:56;97188.56;;;12.29;64.41
20015;BME280;61787;42.022;23.078;2022-09-25T00:11:57;97189.38;;;12.30;64.32
20015;BME280;61787;42.022;23.078;2022-09-25T00:12:59;97183.97;;;12.30;63.77
20015;BME280;61787;42.022;23.078;2022-09-25T00:14:01;97187.88;;;12.32;63.56
20015;BME280;61787;42.022;23.078;2022-09-25T00:15:04;97185.19;;;12.32;63.63
20015;BME280;61787;42.022;23.078;2022-09-25T00:16:09;97187.47;;;12.30;63.96
20015;BME280;61787;42.022;23.078;2022-09-25T00:17:11;97179.38;;;12.30;63.74
20015;BME280;61787;42.022;23.078;2022-09-25T00:18:13;97173.66;;;12.32;63.44
20015;BME280;61787;42.022;23.078;2022-09-25T00:19:21;97177.03;;;12.29;63.55
20015;BME280;61787;42.022;23.078;2022-09-25T00:20:41;97171.53;;;12.25;63.89
20015;BME280;61787;42.022;23.078;2022-09-25T00:21:44;97178.34;;;12.23;64.15
20015;BME280;61787;42.022;23.078;2022-09-25T00:22:46;97169.38;;;12.07;64.21
20015;BME280;61787;42.022;23.078;2022-09-25T00:23:47;97175.53;;;12.07;64.20
20015;BME280;61787;42.022;23.078;2022-09-25T00:24:49;97178.00;;;12.00;64.72
20015;BME280;61787;42.022;23.078;2022-09-25T00:25:53;97178.00;;;12.00;65.13
20015;BME280;61787;42.022;23.078;2022-09-25T00:26:56;97181.59;;;12.04;64.70
20015;BME280;61787;42.022;23.078;2022-09-25T00:28:00;97182.47;;;12.08;64.43
20015;BME280;61787;42.022;23.078;2022-09-25T00:29:03;97176.78;;;12.10;63.94
20015;BME280;61787;42.022;23.078;2022-09-25T00:30:06;97180.69;;;12.12;64.54
20015;BME280;61787;42.022;23.078;2022-09-25T00:31:08;97182.25;;;12.13;64.33
20015;BME280;61787;42.022;23.078;2022-09-25T00:32:11;97181.25;;;12.18;64.76
20015;BME280;61787;42.022;23.078;2022-09-25T00:33:12;97185.06;;;12.17;63.82
20015;BME280;61787;42.022;23.078;2022-09-25T00:34:14;97183.63;;;12.19;63.85
20015;BME280;61787;42.022;23.078;2022-09-25T00:35:15;97184.41;;;12.20;63.90
20015;BME280;61787;42.022;23.078;2022-09-25T00:36:17;97177.13;;;12.20;64.36
20015;BME280;61787;42.022;23.078;2022-09-25T00:37:19;97172.63;;;12.12;64.58
20015;BME280;61787;42.022;23.078;2022-09-25T00:38:21;97176.16;;;11.92;65.32
20015;BME280;61787;42.022;23.078;2022-09-25T00:39:23;97177.13;;;11.75;65.59
20015;BME280;61787;42.022;23.078;2022-09-25T00:40:24;97171.81;;;11.67;66.32
20015;BME280;61787;42.022;23.078;2022-09-25T00:41:27;97172.72;;;11.71;66.10
20015;BME280;61787;42.022;23.078;2022-09-25T00:42:32;97171.47;;;11.68;66.20
20015;BME280;61787;42.022;23.078;2022-09-25T00:43:39;97177.28;;;11.70;65.77
20015;BME280;61787;42.022;23.078;2022-09-25T00:45:57;97175.06;;;11.72;65.91
20015;BME280;61787;42.022;23.078;2022-09-25T00:46:59;97169.19;;;11.79;64.98
20015;BME280;61787;42.022;23.078;2022-09-25T00:48:04;97172.31;;;11.81;64.74
20015;BME280;61787;42.022;23.078;2022-09-25T00:51:28;97169.84;;;11.76;65.51
20015;BME280;61787;42.022;23.078;2022-09-25T00:52:30;97179.94;;;11.79;65.64
20015;BME280;61787;42.022;23.078;2022-09-25T00:53:36;97177.84;;;11.84;65.63
20015;BME280;61787;42.022;23.078;2022-09-25T00:54:46;97180.19;;;11.86;65.10
20015;BME280;61787;42.022;23.078;2022-09-25T00:55:50;97180.31;;;11.89;65.06
20015;BME280;61787;42.022;23.078;2022-09-25T00:56:53;97179.53;;;11.89;64.20
20015;BME280;61787;42.022;23.078;2022-09-25T00:57:58;97176.69;;;11.85;65.20
20015;BME280;61787;42.022;23.078;2022-09-25T00:59:01;97178.28;;;11.86;64.87
20015;BME280;61787;42.022;23.078;2022-09-25T01:00:06;97175.94;;;11.85;64.33
20015;BME280;61787;42.022;23.078;2022-09-25T01:01:08;97179.28;;;11.82;64.35
20015;BME280;61787;42.022;23.078;2022-09-25T01:02:16;97175.00;;;11.81;64.55
20015;BME280;61787;42.022;23.078;2022-09-25T01:03:21;97169.19;;;11.79;64.60
20015;BME280;61787;42.022;23.078;2022-09-25T01:04:23;97172.22;;;11.77;64.31
20015;BME280;61787;42.022;23.078;2022-09-25T01:05:30;97171.41;;;11.77;64.03
20015;BME280;61787;42.022;23.078;2022-09-25T01:06:34;97170.63;;;11.76;64.38
20015;BME280;61787;42.022;23.078;2022-09-25T01:07:38;97170.53;;;11.73;64.54
20015;BME280;61787;42.022;23.078;2022-09-25T01:08:42;97168.00;;;11.68;65.07
20015;BME280;61787;42.022;23.078;2022-09-25T01:09:45;97162.63;;;11.68;64.90
20015;BME280;61787;42.022;23.078;2022-09-25T01:10:47;97170.03;;;11.71;65.13
20015;BME280;61787;42.022;23.078;2022-09-25T01:11:48;97165.16;;;11.73;64.94
20015;BME280;61787;42.022;23.078;2022-09-25T01:12:50;97161.34;;;11.74;64.83
20015;BME280;61787;42.022;23.078;2022-09-25T01:13:54;97159.88;;;11.76;64.51
20015;BME280;61787;42.022;23.078;2022-09-25T01:14:57;97161.47;;;11.77;65.23
20015;BME280;61787;42.022;23.078;2022-09-25T01:21:00;97160.94;;;11.84;64.38
20015;BME280;61787;42.022;23.078;2022-09-25T01:22:14;97152.94;;;11.75;65.03
20015;BME280;61787;42.022;23.078;2022-09-25T01:25:17;97154.31;;;11.28;66.66
20015;BME280;61787;42.022;23.078;2022-09-25T01:29:35;97155.16;;;10.99;67.71
20015;BME280;61787;42.022;23.078;2022-09-25T01:30:41;97153.13;;;10.96;67.96
20015;BME280;61787;42.022;23.078;2022-09-25T01:32:12;97155.63;;;11.01;68.10
20015;BME280;61787;42.022;23.078;2022-09-25T01:33:24;97161.22;;;11.08;67.40
20015;BME280;61787;42.022;23.078;2022-09-25T01:34:37;97155.03;;;11.16;67.47
20015;BME280;61787;42.022;23.078;2022-09-25T01:35:44;97161.09;;;11.25;67.24
20015;BME280;61787;42.022;23.078;2022-09-25T01:36:56;97164.69;;;11.29;66.75
20015;BME280;61787;42.022;23.078;2022-09-25T01:39:38;97167.97;;;11.35;65.89
20015;BME280;61787;42.022;23.078;2022-09-25T01:40:52;97167.00;;;11.39;66.01
20015;BME280;61787;42.022;23.078;2022-09-25T01:42:10;97168.56;;;11.40;65.54
20015;BME280;61787;42.022;23.078;2022-09-25T01:43:17;97170.81;;;11.38;65.50
20015;BME280;61787;42.022;23.078;2022-09-25T01:44:32;97174.44;;;11.34;65.76
20015;BME280;61787;42.022;23.078;2022-09-25T01:46:50;97166.97;;;10.98;65.52
20015;BME280;61787;42.022;23.078;2022-09-25T01:47:55;97172.88;;;10.91;66.61
20015;BME280;61787;42.022;23.078;2022-09-25T01:49:06;97166.44;;;10.84;67.21
20015;BME280;61787;42.022;23.078;2022-09-25T01:50:15;97168.69;;;10.82;67.15
20015;BME280;61787;42.022;23.078;2022-09-25T01:51:34;97167.91;;;10.81;66.88
20015;BME280;61787;42.022;23.078;2022-09-25T01:52:45;97169.78;;;10.81;67.63
20015;BME280;61787;42.022;23.078;2022-09-25T01:53:52;97171.84;;;10.54;68.53
20015;BME280;61787;42.022;23.078;2022-09-25T01:54:59;97175.53;;;10.41;70.16
20015;BME280;61787;42.022;23.078;2022-09-25T01:56:09;97175.88;;;10.31;70.13
20015;BME280;61787;42.022;23.078;2022-09-25T01:57:28;97174.94;;;10.27;70.90
20015;BME280;61787;42.022;23.078;2022-09-25T01:58:40;97177.81;;;10.22;70.74
20015;BME280;61787;42.022;23.078;2022-09-25T02:00:07;97177.19;;;10.08;71.52
20015;BME280;61787;42.022;23.078;2022-09-25T02:01:15;97169.63;;;10.10;71.73
20015;BME280;61787;42.022;23.078;2022-09-25T02:02:22;97168.69;;;10.06;71.35
20015;BME280;61787;42.022;23.078;2022-09-25T02:03:34;97180.97;;;10.07;71.66
20015;BME280;61787;42.022;23.078;2022-09-25T02:04:40;97177.66;;;10.10;71.17
20015;BME280;61787;42.022;23.078;2022-09-25T02:05:47;97171.50;;;10.18;71.75
20015;BME280;61787;42.022;23.078;2022-09-25T02:06:50;97177.19;;;10.25;71.52
20015;BME280;61787;42.022;23.078;2022-09-25T02:07:59;97172.88;;;10.33;70.78
20015;BME280;61787;42.022;23.078;2022-09-25T02:09:08;97180.09;;;10.41;70.87
20015;BME280;61787;42.022;23.078;2022-09-25T02:10:14;97173.78;;;10.45;70.95
20015;BME280;61787;42.022;23.078;2022-09-25T02:11:17;97171.72;;;10.42;71.01
20015;BME280;61787;42.022;23.078;2022-09-25T02:12:29;97169.69;;;10.39;71.71
20015;BME280;61787;42.022;23.078;2022-09-25T02:13:39;97173.03;;;10.36;70.84
20015;BME280;61787;42.022;23.078;2022-09-25T02:14:44;97174.94;;;10.36;71.75
20015;BME280;61787;42.022;23.078;2022-09-25T02:16:21;97172.84;;;10.41;70.66
20015;BME280;61787;42.022;23.078;2022-09-25T02:17:57;97173.31;;;10.43;71.04
20015;BME280;61787;42.022;23.078;2022-09-25T02:19:16;97172.03;;;10.49;70.32
20015;BME280;61787;42.022;23.078;2022-09-25T02:20:38;97176.28;;;10.50;70.30
20015;BME280;61787;42.022;23.078;2022-09-25T02:22:01;97177.38;;;10.49;70.68
20015;BME280;61787;42.022;23.078;2022-09-25T02:23:23;97184.63;;;10.49;70.86
20015;BME280;61787;42.022;23.078;2022-09-25T02:25:42;97169.81;;;10.51;69.65
20015;BME280;61787;42.022;23.078;2022-09-25T02:26:45;97178.31;;;10.53;69.65
20015;BME280;61787;42.022;23.078;2022-09-25T02:27:47;97167.38;;;10.58;69.97
20015;BME280;61787;42.022;23.078;2022-09-25T02:28:48;97167.88;;;10.60;70.14
20015;BME280;61787;42.022;23.078;2022-09-25T02:29:52;97168.78;;;10.64;69.14
20015;BME280;61787;42.022;23.078;2022-09-25T02:30:55;97180.56;;;10.72;68.56
20015;BME280;61787;42.022;23.078;2022-09-25T02:32:08;97180.72;;;10.76;68.47
20015;BME280;61787;42.022;23.078;2022-09-25T02:33:11;97174.38;;;10.80;67.61
20015;BME280;61787;42.022;23.078;2022-09-25T02:34:12;97177.66;;;10.86;68.59
20015;BME280;61787;42.022;23.078;2022-09-25T02:35:15;97174.84;;;10.82;68.81
20015;BME280;61787;42.022;23.078;2022-09-25T02:36:19;97180.06;;;10.79;68.11
20015;BME280;61787;42.022;23.078;2022-09-25T02:37:22;97171.56;;;10.77;68.59
20015;BME280;61787;42.022;23.078;2022-09-25T02:38:24;97175.66;;;10.74;69.33
20015;BME280;61787;42.022;23.078;2022-09-25T02:39:28;97174.09;;;10.73;68.46
20015;BME280;61787;42.022;23.078;2022-09-25T02:40:45;97161.47;;;10.74;68.55
20015;BME280;61787;42.022;23.078;2022-09-25T02:46:13;97167.03;;;10.68;68.73
20015;BME280;61787;42.022;23.078;2022-09-25T02:47:30;97169.81;;;10.72;68.29
20015;BME280;61787;42.022;23.078;2022-09-25T02:48:58;97165.25;;;10.73;68.59
20015;BME280;61787;42.022;23.078;2022-09-25T02:53:46;97173.09;;;10.02;71.54
20015;BME280;61787;42.022;23.078;2022-09-25T02:55:01;97170.31;;;9.90;72.78
20015;BME280;61787;42.022;23.078;2022-09-25T02:56:34;97169.63;;;10.01;72.40
20015;BME280;61787;42.022;23.078;2022-09-25T02:57:55;97171.50;;;10.18;72.13
20015;BME280;61787;42.022;23.078;2022-09-25T02:59:06;97168.47;;;10.28;71.03
20015;BME280;61787;42.022;23.078;2022-09-25T03:00:09;97170.00;;;10.38;71.26
20015;BME280;61787;42.022;23.078;2022-09-25T03:01:14;97171.91;;;10.37;70.27
20015;BME280;61787;42.022;23.078;2022-09-25T03:02:18;97173.97;;;10.40;70.68
20015;BME280;61787;42.022;23.078;2022-09-25T03:03:21;97174.75;;;10.41;71.22
20015;BME280;61787;42.022;23.078;2022-09-25T03:04:25;97177.09;;;10.42;70.40
20015;BME280;61787;42.022;23.078;2022-09-25T03:05:29;97173.03;;;10.36;71.06
20015;BME280;61787;42.022;23.078;2022-09-25T03:06:31;97171.16;;;10.28;69.81
20015;BME280;61787;42.022;23.078;2022-09-25T03:07:33;97169.59;;;10.27;70.31
20015;BME280;61787;42.022;23.078;2022-09-25T03:08:55;97175.91;;;10.22;69.99
20015;BME280;61787;42.022;23.078;2022-09-25T03:09:59;97177.19;;;10.25;70.90
20015;BME280;61787;42.022;23.078;2022-09-25T03:11:01;97168.16;;;10.30;70.87
20015;BME280;61787;42.022;23.078;2022-09-25T03:12:04;97168.97;;;10.30;70.70
20015;BME280;61787;42.022;23.078;2022-09-25T03:14:17;97168.59;;;10.40;69.77
20015;BME280;61787;42.022;23.078;2022-09-25T03:15:20;97183.41;;;10.46;70.31
20015;BME280;61787;42.022;23.078;2022-09-25T03:16:36;97176.28;;;10.50;69.75
20015;BME280;61787;42.022;23.078;2022-09-25T03:17:41;97175.19;;;10.51;70.22
20015;BME280;61787;42.022;23.078;2022-09-25T03:18:44;97166.94;;;10.56;69.85
20015;BME280;61787;42.022;23.078;2022-09-25T03:19:46;97175.44;;;10.58;69.08
20015;BME280;61787;42.022;23.078;2022-09-25T03:20:48;97174.34;;;10.59;69.59
20015;BME280;61787;42.022;23.078;2022-09-25T03:21:49;97169.44;;;10.61;69.43
20015;BME280;61787;42.022;23.078;2022-09-25T03:22:51;97171.00;;;10.62;69.40
20015;BME280;61787;42.022;23.078;2022-09-25T03:23:53;97169.88;;;10.63;68.63
20015;BME280;61787;42.022;23.078;2022-09-25T03:24:57;97168.50;;;10.57;69.13
20015;BME280;61787;42.022;23.078;2022-09-25T03:25:58;97168.03;;;10.55;68.90
20015;BME280;61787;42.022;23.078;2022-09-25T03:27:00;97160.81;;;10.47;70.26
20015;BME280;61787;42.022;23.078;2022-09-25T03:28:01;97159.78;;;10.31;70.19
20015;BME280;61787;42.022;23.078;2022-09-25T03:29:03;97164.72;;;10.12;70.67
20015;BME280;61787;42.022;23.078;2022-09-25T03:30:06;97170.94;;;9.87;71.96
20015;BME280;61787;42.022;23.078;2022-09-25T03:31:11;97160.72;;;9.80;73.13
20015;BME280;61787;42.022;23.078;2022-09-25T03:32:13;97160.72;;;9.80;72.80
20015;BME280;61787;42.022;23.078;2022-09-25T03:33:15;97159.94;;;9.79;72.95
20015;BME280;61787;42.022;23.078;2022-09-25T03:34:18;97164.66;;;9.82;73.00
20015;BME280;61787;42.022;23.078;2022-09-25T03:35:20;97159.31;;;9.82;72.75
20015;BME280;61787;42.022;23.078;2022-09-25T03:36:24;97157.88;;;9.85;72.85
20015;BME280;61787;42.022;23.078;2022-09-25T03:37:25;97162.75;;;9.92;72.89
20015;BME280;61787;42.022;23.078;2022-09-25T03:38:27;97160.38;;;9.99;72.76
20015;BME280;61787;42.022;23.078;2022-09-25T03:39:29;97160.63;;;10.06;72.35
20015;BME280;61787;42.022;23.078;2022-09-25T03:40:30;97167.41;;;10.12;71.67
20015;BME280;61787;42.022;23.078;2022-09-25T03:41:33;97166.00;;;10.14;72.05
20015;BME280;61787;42.022;23.078;2022-09-25T03:42:35;97170.84;;;10.21;70.64
20015;BME280;61787;42.022;23.078;2022-09-25T03:43:39;97169.75;;;10.22;71.07
20015;BME280;61787;42.022;23.078;2022-09-25T03:44:41;97168.66;;;10.23;71.19
20015;BME280;61787;42.022;23.078;2022-09-25T03:45:43;97168.19;;;10.21;70.61
20015;BME280;61787;42.022;23.078;2022-09-25T03:46:44;97161.09;;;10.25;70.06
20015;BME280;61787;42.022;23.078;2022-09-25T03:47:46;97171.63;;;10.30;70.30
20015;BME280;61787;42.022;23.078;2022-09-25T03:48:48;97175.25;;;10.34;69.65
20015;BME280;61787;42.022;23.078;2022-09-25T03:49:50;97170.66;;;10.35;69.09
20015;BME280;61787;42.022;23.078;2022-09-25T03:50:51;97175.72;;;10.36;69.89
20015;BME280;61787;42.022;23.078;2022-09-25T03:51:53;97177.44;;;10.32;69.02
20015;BME280;61787;42.022;23.078;2022-09-25T03:52:55;97168.97;;;10.30;69.97
20015;BME280;61787;42.022;23.078;2022-09-25T03:53:57;97178.09;;;10.29;70.00
20015;BME280;61787;42.022;23.078;2022-09-25T03:54:59;97178.72;;;10.26;70.05
20015;BME280;61787;42.022;23.078;2022-09-25T03:56:06;97180.31;;;10.27;69.82
20015;BME280;61787;42.022;23.078;2022-09-25T03:57:08;97178.09;;;10.29;69.42
20015;BME280;61787;42.022;23.078;2022-09-25T03:58:13;97187.38;;;10.32;68.59
20015;BME280;61787;42.022;23.078;2022-09-25T03:59:15;97178.41;;;10.36;68.57
20015;BME280;61787;42.022;23.078;2022-09-25T04:00:17;97178.88;;;10.30;68.22
20015;BME280;61787;42.022;23.078;2022-09-25T04:01:18;97176.69;;;10.23;69.53
20015;BME280;61787;42.022;23.078;2022-09-25T04:02:22;97177.84;;;10.05;70.25
20015;BME280;61787;42.022;23.078;2022-09-25T04:03:25;97189.53;;;9.92;70.59
20015;BME280;61787;42.022;23.078;2022-09-25T04:04:29;97183.88;;;9.84;70.48
20015;BME280;61787;42.022;23.078;2022-09-25T04:05:31;97189.72;;;9.78;70.41
20015;BME280;61787;42.022;23.078;2022-09-25T04:06:35;97188.63;;;9.79;71.03
20015;BME280;61787;42.022;23.078;2022-09-25T04:07:36;97192.72;;;9.76;70.79
20015;BME280;61787;42.022;23.078;2022-09-25T04:08:38;97195.56;;;9.71;71.18
20015;BME280;61787;42.022;23.078;2022-09-25T04:09:40;97188.63;;;9.70;71.92
20015;BME280;61787;42.022;23.078;2022-09-25T04:10:41;97186.41;;;9.72;70.92
20015;BME280;61787;42.022;23.078;2022-09-25T04:11:43;97196.81;;;9.74;70.88
20015;BME280;61787;42.022;23.078;2022-09-25T04:12:45;97198.38;;;9.75;70.26
20015;BME280;61787;42.022;23.078;2022-09-25T04:13:46;97198.06;;;9.76;70.28
20015;BME280;61787;42.022;23.078;2022-09-25T04:14:48;97195.88;;;9.78;70.95
20015;BME280;61787;42.022;23.078;2022-09-25T04:15:50;97199.78;;;9.81;70.38
20015;BME280;61787;42.022;23.078;2022-09-25T04:16:52;97195.22;;;9.81;70.22
20015;BME280;61787;42.022;23.078;2022-09-25T04:17:55;97195.06;;;9.78;70.49
20015;BME280;61787;42.022;23.078;2022-09-25T04:19:00;97190.38;;;9.58;71.15
20015;BME280;61787;42.022;23.078;2022-09-25T04:20:02;97194.47;;;9.21;72.89
20015;BME280;61787;42.022;23.078;2022-09-25T04:21:06;97191.94;;;9.07;74.59
20015;BME280;61787;42.022;23.078;2022-09-25T04:22:08;97190.97;;;8.94;74.55
20015;BME280;61787;42.022;23.078;2022-09-25T04:23:10;97201.06;;;8.97;74.64
20015;BME280;61787;42.022;23.078;2022-09-25T04:24:11;97200.91;;;9.03;74.19
20015;BME280;61787;42.022;23.078;2022-09-25T04:25:32;97193.50;;;8.99;74.51
20015;BME280;61787;42.022;23.078;2022-09-25T04:26:34;97205.16;;;9.04;74.07
20015;BME280;61787;42.022;23.078;2022-09-25T04:27:35;97205.19;;;9.12;74.55
20015;BME280;61787;42.022;23.078;2022-09-25T04:28:37;97214.31;;;9.28;73.15
20015;BME280;61787;42.022;23.078;2022-09-25T04:29:39;97214.78;;;9.30;72.44
20015;BME280;61787;42.022;23.078;2022-09-25T04:30:41;97218.72;;;9.33;72.56
20015;BME280;61787;42.022;23.078;2022-09-25T04:31:42;97217.94;;;9.41;72.27
20015;BME280;61787;42.022;23.078;2022-09-25T04:32:44;97215.75;;;9.43;72.12
20015;BME280;61787;42.022;23.078;2022-09-25T04:34:04;97213.69;;;9.49;72.34
20015;BME280;61787;42.022;23.078;2022-09-25T04:35:06;97208.78;;;9.51;71.08
20015;BME280;61787;42.022;23.078;2022-09-25T04:36:08;97205.50;;;9.54;70.95
20015;BME280;61787;42.022;23.078;2022-09-25T04:37:10;97217.94;;;9.58;70.63
20015;BME280;61787;42.022;23.078;2022-09-25T04:38:12;97214.13;;;9.59;71.14
20015;BME280;61787;42.022;23.078;2022-09-25T04:39:14;97209.75;;;9.63;71.67
20015;BME280;61787;42.022;23.078;2022-09-25T04:40:20;97212.56;;;9.67;71.03
20015;BME280;61787;42.022;23.078;2022-09-25T04:41:22;97212.88;;;9.65;70.96
20015;BME280;61787;42.022;23.078;2022-09-25T04:42:24;97219.19;;;9.69;70.60
20015;BME280;61787;42.022;23.078;2022-09-25T04:43:32;97220.75;;;9.70;71.05
20015;BME280;61787;42.022;23.078;2022-09-25T04:44:34;97218.56;;;9.72;71.04
20015;BME280;61787;42.022;23.078;2022-09-25T04:45:36;97221.84;;;9.78;70.65
20015;BME280;61787;42.022;23.078;2022-09-25T04:46:38;97220.41;;;9.80;70.23
20015;BME280;61787;42.022;23.078;2022-09-25T04:47:39;97220.41;;;9.80;69.90
20015;BME280;61787;42.022;23.078;2022-09-25T04:48:43;97210.84;;;9.79;69.86
20015;BME280;61787;42.022;23.078;2022-09-25T04:49:46;97221.72;;;9.74;70.24
20015;BME280;61787;42.022;23.078;2022-09-25T04:50:48;97216.97;;;9.71;70.38
20015;BME280;61787;42.022;23.078;2022-09-25T04:51:51;97220.13;;;9.73;70.72
20015;BME280;61787;42.022;23.078;2022-09-25T04:52:53;97218.84;;;9.71;70.25
20015;BME280;61787;42.022;23.078;2022-09-25T04:53:56;97221.53;;;9.71;70.68
20015;BME280;61787;42.022;23.078;2022-09-25T04:54:58;97224.06;;;9.76;71.12
20015;BME280;61787;42.022;23.078;2022-09-25T04:56:03;97217.28;;;9.78;70.54
20015;BME280;61787;42.022;23.078;2022-09-25T04:57:05;97221.72;;;9.74;71.40
20015;BME280;61787;42.022;23.078;2022-09-25T04:58:09;97218.56;;;9.55;72.54
20015;BME280;61787;42.022;23.078;2022-09-25T04:59:11;97213.06;;;9.43;73.08
20015;BME280;61787;42.022;23.078;2022-09-25T05:00:13;97213.19;;;9.21;74.27
20015;BME280;61787;42.022;23.078;2022-09-25T05:01:19;97210.34;;;9.09;74.77
20015;BME280;61787;42.022;23.078;2022-09-25T05:02:25;97216.81;;;9.08;75.40
20015;BME280;61787;42.022;23.078;2022-09-25T05:03:28;97211.78;;;9.06;75.33
20015;BME280;61787;42.022;23.078;2022-09-25T05:04:30;97217.44;;;9.05;75.73
20015;BME280;61787;42.022;23.078;2022-09-25T05:05:32;97209.41;;;9.05;75.69
20015;BME280;61787;42.022;23.078;2022-09-25T05:06:33;97214.16;;;9.08;75.43
20015;BME280;61787;42.022;23.078;2022-09-25T05:07:35;97211.31;;;9.13;75.42
20015;BME280;61787;42.022;23.078;2022-09-25T05:08:37;97214.91;;;9.08;75.64
20015;BME280;61787;42.022;23.078;2022-09-25T05:09:38;97209.41;;;9.05;76.09
20015;BME280;61787;42.022;23.078;2022-09-25T05:10:42;97209.84;;;8.98;75.72
20015;BME280;61787;42.022;23.078;2022-09-25T05:11:47;97208.47;;;9.01;76.54
20015;BME280;61787;42.022;23.078;2022-09-25T05:12:54;97210.34;;;8.91;77.01
20015;BME280;61787;42.022;23.078;2022-09-25T05:13:56;97214.28;;;9.03;76.83
20015;BME280;61787;42.022;23.078;2022-09-25T05:14:58;97214.75;;;9.05;76.18
20015;BME280;61787;42.022;23.078;2022-09-25T05:16:00;97215.38;;;9.02;76.75
20015;BME280;61787;42.022;23.078;2022-09-25T05:17:02;97210.69;;;9.16;76.67
20015;BME280;61787;42.022;23.078;2022-09-25T05:18:16;97217.75;;;9.29;76.58
20015;BME280;61787;42.022;23.078;2022-09-25T05:19:18;97218.56;;;9.38;75.18
20015;BME280;61787;42.022;23.078;2022-09-25T05:20:20;97219.81;;;9.49;75.43
20015;BME280;61787;42.022;23.078;2022-09-25T05:21:21;97218.72;;;9.59;74.59
20015;BME280;61787;42.022;23.078;2022-09-25T05:22:23;97214.47;;;9.66;74.60
20015;BME280;61787;42.022;23.078;2022-09-25T05:23:24;97209.88;;;9.75;74.67
20015;BME280;61787;42.022;23.078;2022-09-25T05:24:26;97209.09;;;9.83;73.44
20015;BME280;61787;42.022;23.078;2022-09-25T05:25:28;97211.72;;;10.01;74.05
20015;BME280;61787;42.022;23.078;2022-09-25T05:26:29;97197.22;;;10.19;72.46
20015;BME280;61787;42.022;23.078;2022-09-25T05:27:34;97204.06;;;10.37;72.23
20015;BME280;61787;42.022;23.078;2022-09-25T05:28:36;97200.06;;;10.52;71.46
20015;BME280;61787;42.022;23.078;2022-09-25T05:29:37;97191.16;;;10.68;71.38
20015;BME280;61787;42.022;23.078;2022-09-25T05:30:40;97193.47;;;10.79;70.91
20015;BME280;61787;42.022;23.078;2022-09-25T05:31:43;97195.41;;;10.69;70.42
20015;BME280;61787;42.022;23.078;2022-09-25T05:32:50;97193.03;;;10.77;70.47
20015;BME280;61787;42.022;23.078;2022-09-25T05:33:51;97192.91;;;10.94;69.20
20015;BME280;61787;42.022;23.078;2022-09-25T05:34:54;97192.81;;;11.11;69.13
20015;BME280;61787;42.022;23.078;2022-09-25T05:35:59;97191.75;;;11.24;68.95
20015;BME280;61787;42.022;23.078;2022-09-25T05:37:02;97191.34;;;11.34;68.49
20015;BME280;61787;42.022;23.078;2022-09-25T05:38:03;97192.53;;;11.45;67.35
20015;BME280;61787;42.022;23.078;2022-09-25T05:39:10;97190.31;;;11.47;67.43
20015;BME280;61787;42.022;23.078;2022-09-25T05:40:16;97187.31;;;11.49;66.83
20015;BME280;61787;42.022;23.078;2022-09-25T05:41:19;97194.38;;;11.53;67.00
20015;BME280;61787;42.022;23.078;2022-09-25T05:42:21;97189.50;;;11.68;66.63
20015;BME280;61787;42.022;23.078;2022-09-25T05:43:23;97186.53;;;11.81;66.38
20015;BME280;61787;42.022;23.078;2022-09-25T05:44:25;97195.03;;;12.04;66.17
20015;BME280;61787;42.022;23.078;2022-09-25T05:45:28;97194.50;;;12.23;65.63
20015;BME280;61787;42.022;23.078;2022-09-25T05:46:30;97196.84;;;12.24;64.61
20015;BME280;61787;42.022;23.078;2022-09-25T05:47:32;97197.28;;;12.14;65.75
20015;BME280;61787;42.022;23.078;2022-09-25T05:48:34;97186.56;;;12.38;65.88
20015;BME280;61787;42.022;23.078;2022-09-25T05:49:35;97189.13;;;12.47;64.57
20015;BME280;61787;42.022;23.078;2022-09-25T05:50:37;97196.09;;;12.48;63.70
20015;BME280;61787;42.022;23.078;2022-09-25T05:51:38;97200.56;;;12.44;63.11
20015;BME280;61787;42.022;23.078;2022-09-25T05:52:40;97195.63;;;12.34;64.25
20015;BME280;61787;42.022;23.078;2022-09-25T05:53:41;97196.75;;;12.33;64.39
20015;BME280;61787;42.022;23.078;2022-09-25T05:54:43;97195.53;;;12.43;64.57
20015;BME280;61787;42.022;23.078;2022-09-25T05:55:52;97193.50;;;12.52;64.40
20015;BME280;61787;42.022;23.078;2022-09-25T05:56:54;97205.16;;;12.44;64.08
20015;BME280;61787;42.022;23.078;2022-09-25T05:58:02;97199.13;;;12.71;64.57
20015;BME280;61787;42.022;23.078;2022-09-25T05:59:04;97199.81;;;12.92;63.56
20015;BME280;61787;42.022;23.078;2022-09-25T06:00:07;97197.97;;;13.20;62.46
20015;BME280;61787;42.022;23.078;2022-09-25T06:01:13;97195.22;;;13.45;61.57
20015;BME280;61787;42.022;23.078;2022-09-25T06:02:15;97197.44;;;13.55;60.08
20015;BME280;61787;42.022;23.078;2022-09-25T06:03:17;97193.38;;;13.33;60.45
20015;BME280;61787;42.022;23.078;2022-09-25T06:04:20;97191.31;;;13.42;60.19
20015;BME280;61787;42.022;23.078;2022-09-25T06:05:22;97185.94;;;13.42;60.00
20015;BME280;61787;42.022;23.078;2022-09-25T06:06:23;97189.19;;;13.36;59.46
20015;BME280;61787;42.022;23.078;2022-09-25T06:07:28;97189.03;;;13.16;59.43